Ronnie Rogers — WDD2270 — position and weather

sailwx.info

Track history (hours):
 
Tides and Currents Weather Stations Pressure Air Temp Water Temp Dewpoint Dewpoint Depression Visibility Wind Speed Wind Dir Waves Ship Positions

Ronnie Rogers

Owner: Florida Marine, LLC, Mandeville, LA. More information available from US FCC via Universal Licensing System and Coast Guard Vessel Documentation Center.

Last reported at 2017-Jan-14 23:26 UTC. Time now 2017-Jan-17 21:27 UTC.
Position N 29°44' W 095°02'.

Length 27 m; draft 2.4 m.

Type: Towing. MMSI: 367113160.

Date/timePositionNaut miles runAvg speedWind from/ knotsBaromVisibWave heightAir tempDewpointWater temp
2017-Jan-14 23:26N 29°44' W 095°02'1 0.8
2017-Jan-14 22:05N 29°44' W 095°01'0 0.0
2017-Jan-14 21:17N 29°44' W 095°01'0 0.0
2017-Jan-14 18:23N 29°44' W 095°01'3 3.4
2017-Jan-14 17:33N 29°45' W 095°04'3 0.1
2017-Jan-13 02:10N 29°43' W 095°01'11 6.6
2017-Jan-13 00:33N 29°34' W 094°55'73 2.3
2017-Jan-11 16:21N 30°04' W 093°39'5 6.0
2017-Jan-11 15:34N 30°04' W 093°33'6 5.6
2017-Jan-11 14:33N 30°04' W 093°27'5 5.0
2017-Jan-11 13:34N 30°04' W 093°21'3 3.4
2017-Jan-11 12:33N 30°05' W 093°17'1 0.9
2017-Jan-11 11:34N 30°05' W 093°17'4 3.5
2017-Jan-11 10:33N 30°02' W 093°14'5 5.2
2017-Jan-11 09:33N 29°57' W 093°11'5 4.6
2017-Jan-11 08:33N 29°56' W 093°06'33 5.4
2017-Jan-11 02:22N 29°54' W 092°28'4 5.2
2017-Jan-11 01:33N 29°52' W 092°23'5 5.0
2017-Jan-11 00:34N 29°50' W 092°18'6 5.6
2017-Jan-10 23:33N 29°47' W 092°12'2 2.2
2017-Jan-10 22:33N 29°47' W 092°10'6 5.7
2017-Jan-10 21:34N 29°49' W 092°04'  
Track history (hours):
 
Tides and Currents Weather Stations Pressure Air Temp Water Temp Dewpoint Dewpoint Depression Visibility Wind Speed Wind Dir Waves Ship Positions

Ronnie Rogers

Owner: Florida Marine, LLC, Mandeville, LA. More information available from US FCC via Universal Licensing System and Coast Guard Vessel Documentation Center.

Last reported at 2017-Jan-14 23:26 UTC. Time now 2017-Jan-17 21:27 UTC.
Position N 29°44' W 095°02'.

Length 27 m; draft 2.4 m.

Type: Towing. MMSI: 367113160.

Date/timePositionNaut miles runAvg speedWind from/ knotsBaromVisibWave heightAir tempDewpointWater temp
2017-Jan-14 23:26N 29°44' W 095°02'1 0.8
2017-Jan-14 22:05N 29°44' W 095°01'0 0.0
2017-Jan-14 21:17N 29°44' W 095°01'0 0.0
2017-Jan-14 18:23N 29°44' W 095°01'3 3.4
2017-Jan-14 17:33N 29°45' W 095°04'3 0.1
2017-Jan-13 02:10N 29°43' W 095°01'11 6.6
2017-Jan-13 00:33N 29°34' W 094°55'73 2.3
2017-Jan-11 16:21N 30°04' W 093°39'5 6.0
2017-Jan-11 15:34N 30°04' W 093°33'6 5.6
2017-Jan-11 14:33N 30°04' W 093°27'5 5.0
2017-Jan-11 13:34N 30°04' W 093°21'3 3.4
2017-Jan-11 12:33N 30°05' W 093°17'1 0.9
2017-Jan-11 11:34N 30°05' W 093°17'4 3.5
2017-Jan-11 10:33N 30°02' W 093°14'5 5.2
2017-Jan-11 09:33N 29°57' W 093°11'5 4.6
2017-Jan-11 08:33N 29°56' W 093°06'33 5.4
2017-Jan-11 02:22N 29°54' W 092°28'4 5.2
2017-Jan-11 01:33N 29°52' W 092°23'5 5.0
2017-Jan-11 00:34N 29°50' W 092°18'6 5.6
2017-Jan-10 23:33N 29°47' W 092°12'2 2.2
2017-Jan-10 22:33N 29°47' W 092°10'6 5.7
2017-Jan-10 21:34N 29°49' W 092°04'  

Dump ship's entire track history